TDPD/DOM METAR and TAF weather

Enter ICAO airport designator
Station Type Date Time Source
TDPD METAR 2021/09/23 23:00 UTC NOAA

TDPD 232300Z 28003KT 9999 FEW017 26/25 Q1013


Station Type Date Time Source
TDPD Decoded METAR 2021/09/23 23:00 UTC NOAA

Melville Hall Airport, Dominica (TDPD) 15-32N 061-18W 14M
Sep 23, 2021 - 07:00 PM EDT / 2021.09.23 2300 UTC
Wind: from the W (280 degrees) at 3 MPH (3 KT):0
Visibility: greater than 7 mile(s):0
Sky conditions: mostly clear
Temperature: 78 F (26 C)
Dew Point: 77 F (25 C)
Relative Humidity: 94%
Pressure (altimeter): 29.91 in. Hg (1013 hPa)
ob: TDPD 232300Z 28003KT 9999 FEW017 26/25 Q1013
cycle: 23

Station Type Date Time Source
TDPD TAF 2021/09/24 06:23 UTC NOAA

TAF TDPD 240500Z 2406/2506 13005KT 9999 SCT020
TEMPO 2406/2412 SHRA BKN014

Example: see airport list